Ferme-Neuve, Canada
Current Conditions -  °F | °C
As of 10:00 AM on Wednesday 26 Nov 2014 (Local Time) from CYND Reporting Station
Overcast Overcast  
Wind Chill: -5°   Ceiling: 18000
Heat Index: -2°   Visibility: 15mi
Dew Point: -7°   Wind: 5mph
Humidity: 69%   Direction: 350°N
Pressure: 30.27"   Gusts: NA
Location:  46.7°N, 75.45°W
Report Text: CYND 261500Z 35004KT 15SM OVC180 M02/M07 A3027 RMK AC8 PRESFR SLP252
Loading
Personal Weather Stations






























Interactive Weather Map New forecast layout! Learn more

10-Day Weather Forecast

Advertisements
Track Severe Weather on mobile